createdAt,value
2023-03-11T00:00:01.952Z,21.74
2023-03-11T00:02:28.453Z,21.36
2023-03-11T00:04:54.957Z,21.37
2023-03-11T00:07:21.442Z,20.71
2023-03-11T00:09:47.899Z,21.44
2023-03-11T00:12:14.368Z,21.48
2023-03-11T00:14:40.835Z,20.72
2023-03-11T00:17:07.319Z,20.04
2023-03-11T00:19:33.763Z,19.31
2023-03-11T00:22:00.202Z,19.37
2023-03-11T00:24:26.649Z,19.12
2023-03-11T00:26:53.157Z,19.14
2023-03-11T00:29:19.613Z,18.96
2023-03-11T00:31:46.072Z,18.00
2023-03-11T00:34:12.511Z,18.11
2023-03-11T00:36:38.966Z,17.72
2023-03-11T00:39:05.426Z,17.66
2023-03-11T00:41:31.876Z,17.44
2023-03-11T00:43:58.335Z,17.01
2023-03-11T00:46:24.834Z,17.38
2023-03-11T00:48:51.310Z,16.91
2023-03-11T00:51:17.765Z,16.47
2023-03-11T00:53:44.203Z,17.10
2023-03-11T00:56:10.661Z,16.78
2023-03-11T00:58:37.150Z,16.09
2023-03-11T01:01:03.626Z,16.27
2023-03-11T01:03:30.085Z,15.79
2023-03-11T01:05:56.545Z,15.62
2023-03-11T01:08:23.001Z,15.60
2023-03-11T01:10:49.439Z,15.46
2023-03-11T01:13:16.086Z,15.74
2023-03-11T01:15:42.580Z,15.21
2023-03-11T01:18:09.060Z,14.87
2023-03-11T01:20:35.515Z,15.07
2023-03-11T01:23:01.973Z,14.34
2023-03-11T01:25:28.418Z,14.45
2023-03-11T01:27:54.901Z,14.28
2023-03-11T01:30:21.388Z,14.73
2023-03-11T01:32:47.903Z,14.65
2023-03-11T01:35:14.355Z,14.33
2023-03-11T01:37:40.806Z,14.22
2023-03-11T01:40:07.254Z,14.59
2023-03-11T01:42:33.708Z,13.82
2023-03-11T01:45:00.161Z,13.60
2023-03-11T01:47:26.655Z,13.68
2023-03-11T01:49:53.130Z,13.54
2023-03-11T01:52:19.588Z,13.36
2023-03-11T01:54:46.037Z,12.90
2023-03-11T01:57:12.509Z,13.12
2023-03-11T01:59:38.970Z,12.78
2023-03-11T02:02:05.482Z,12.71
2023-03-11T02:04:32.046Z,12.90
2023-03-11T02:06:58.515Z,12.74
2023-03-11T02:09:24.979Z,12.65
2023-03-11T02:11:51.414Z,12.63
2023-03-11T02:14:17.849Z,12.34
2023-03-11T02:16:44.294Z,12.68
2023-03-11T02:19:10.754Z,12.00
2023-03-11T02:21:37.218Z,12.19
2023-03-11T02:24:03.696Z,11.78
2023-03-11T02:26:30.265Z,11.90
2023-03-11T02:28:56.722Z,11.72
2023-03-11T02:31:23.207Z,11.50
2023-03-11T02:33:49.693Z,11.58
2023-03-11T02:36:16.147Z,11.44
2023-03-11T02:38:42.613Z,11.24
2023-03-11T02:41:09.063Z,11.23
2023-03-11T02:43:35.555Z,10.85
2023-03-11T02:46:02.021Z,11.18
2023-03-11T02:48:28.482Z,10.70
2023-03-11T02:50:54.953Z,10.87
2023-03-11T02:53:21.391Z,11.07
2023-03-11T02:55:47.853Z,10.84
2023-03-11T02:58:14.328Z,10.72
2023-03-11T03:00:40.894Z,10.60
2023-03-11T03:03:07.366Z,10.74
2023-03-11T03:05:33.827Z,9.76
2023-03-11T03:08:00.282Z,10.46
2023-03-11T03:10:26.746Z,9.86
2023-03-11T03:12:53.209Z,10.21
2023-03-11T03:15:19.683Z,10.14
2023-03-11T03:17:46.186Z,9.61
2023-03-11T03:20:12.719Z,9.82
2023-03-11T03:22:39.183Z,10.07
2023-03-11T03:25:05.655Z,10.11
2023-03-11T03:27:32.127Z,9.67
2023-03-11T03:29:58.564Z,9.88
2023-03-11T03:32:25.026Z,9.81
2023-03-11T03:34:51.467Z,9.32
2023-03-11T03:37:17.952Z,9.09
2023-03-11T03:39:44.401Z,9.29
2023-03-11T03:42:11.015Z,9.12
2023-03-11T03:44:37.568Z,9.03
2023-03-11T03:47:04.039Z,9.03
2023-03-11T03:49:30.474Z,8.87
2023-03-11T03:51:56.930Z,8.74
2023-03-11T03:54:23.359Z,8.86
2023-03-11T03:56:49.812Z,8.62
2023-03-11T03:59:16.239Z,8.12
2023-03-11T04:01:42.691Z,8.50
2023-03-11T04:04:09.137Z,8.32
2023-03-11T04:06:35.597Z,8.48
2023-03-11T04:09:02.072Z,7.97
2023-03-11T04:11:28.519Z,8.42
2023-03-11T04:13:54.971Z,7.90
2023-03-11T04:16:21.501Z,8.08
2023-03-11T04:18:48.022Z,7.60
2023-03-11T04:21:14.488Z,7.80
2023-03-11T04:23:40.973Z,7.70
2023-03-11T04:26:07.443Z,7.50
2023-03-11T04:28:33.908Z,7.66
2023-03-11T04:31:00.439Z,7.97
2023-03-11T04:33:26.900Z,7.57
2023-03-11T04:35:53.360Z,7.47
2023-03-11T04:38:19.819Z,7.49
2023-03-11T04:40:46.266Z,7.32
2023-03-11T04:43:12.723Z,7.21
2023-03-11T04:45:39.249Z,7.39
2023-03-11T04:48:05.705Z,7.05
2023-03-11T04:50:32.156Z,6.84
2023-03-11T04:52:58.608Z,7.34
2023-03-11T04:55:25.078Z,7.10
2023-03-11T04:57:51.507Z,6.91
2023-03-11T05:00:17.942Z,6.84
2023-03-11T05:02:44.403Z,7.00
2023-03-11T05:05:10.875Z,6.55
2023-03-11T05:07:37.321Z,6.71
2023-03-11T05:10:03.828Z,6.67
2023-03-11T05:12:30.273Z,6.58
2023-03-11T05:14:56.758Z,6.60
2023-03-11T05:17:23.202Z,6.70
2023-03-11T05:19:49.654Z,6.39
2023-03-11T05:22:16.102Z,6.45
2023-03-11T05:24:42.557Z,6.38
2023-03-11T05:27:08.996Z,6.24
2023-03-11T05:29:35.453Z,5.91
2023-03-11T05:32:01.911Z,5.80
2023-03-11T05:34:28.397Z,6.24
2023-03-11T05:36:54.834Z,5.87
2023-03-11T05:39:21.308Z,5.84
2023-03-11T05:41:47.758Z,5.92
2023-03-11T05:44:14.206Z,5.60
2023-03-11T05:46:40.697Z,5.96
2023-03-11T05:49:07.175Z,5.94
2023-03-11T05:51:33.653Z,5.84
2023-03-11T05:54:00.131Z,5.63
2023-03-11T05:56:26.589Z,5.54
2023-03-11T05:58:53.024Z,5.52
2023-03-11T06:01:19.487Z,5.48
2023-03-11T06:03:45.998Z,5.40
2023-03-11T06:06:12.566Z,5.35
2023-03-11T06:08:39.025Z,5.13
2023-03-11T06:11:05.472Z,5.48
2023-03-11T06:13:31.913Z,5.42
2023-03-11T06:15:58.381Z,5.24
2023-03-11T06:18:24.848Z,5.28
2023-03-11T06:20:51.287Z,5.15
2023-03-11T06:23:17.729Z,5.06
2023-03-11T06:25:44.183Z,5.19
2023-03-11T06:28:10.630Z,4.78
2023-03-11T06:30:37.062Z,4.62
2023-03-11T06:33:03.574Z,4.65
2023-03-11T06:35:30.022Z,4.73
2023-03-11T06:37:56.452Z,4.68
2023-03-11T06:40:22.895Z,4.49
2023-03-11T06:42:49.336Z,4.62
2023-03-11T06:45:15.792Z,4.67
2023-03-11T06:47:42.237Z,4.89
2023-03-11T06:50:08.670Z,4.47
2023-03-11T06:52:35.115Z,4.75
2023-03-11T06:55:01.552Z,4.53
2023-03-11T06:57:27.996Z,4.71
2023-03-11T06:59:54.451Z,4.55
2023-03-11T07:02:20.883Z,4.15
2023-03-11T07:04:47.349Z,3.98
2023-03-11T07:07:13.799Z,3.67
2023-03-11T07:09:40.233Z,3.87
2023-03-11T07:12:06.913Z,3.74
2023-03-11T07:14:33.460Z,3.52
2023-03-11T07:16:59.964Z,3.41
2023-03-11T07:19:26.464Z,3.69
2023-03-11T07:21:52.922Z,3.64
2023-03-11T07:24:19.774Z,3.46
2023-03-11T07:26:46.295Z,3.52
2023-03-11T07:29:12.738Z,3.61
2023-03-11T07:31:39.242Z,3.41
2023-03-11T07:34:05.718Z,3.51
2023-03-11T07:36:32.210Z,3.39
2023-03-11T07:38:58.666Z,3.30
2023-03-11T07:41:25.120Z,3.25
2023-03-11T07:43:51.570Z,3.36
2023-03-11T07:46:18.086Z,3.38
2023-03-11T07:48:44.550Z,3.18
2023-03-11T07:51:10.999Z,3.16
2023-03-11T07:53:37.446Z,3.10
2023-03-11T07:56:03.895Z,2.97
2023-03-11T07:58:30.326Z,2.97
2023-03-11T08:00:56.773Z,2.76
2023-03-11T08:03:23.321Z,2.67
2023-03-11T08:05:49.808Z,2.69
2023-03-11T08:08:16.236Z,2.90
2023-03-11T08:10:42.681Z,2.74
2023-03-11T08:13:09.130Z,2.90
2023-03-11T08:15:35.602Z,2.70
2023-03-11T08:18:02.061Z,2.99
2023-03-11T08:20:28.591Z,2.72
2023-03-11T08:22:58.417Z,2.70
2023-03-11T08:25:25.028Z,2.78
2023-03-11T08:27:51.542Z,2.75
2023-03-11T08:30:17.982Z,2.68
2023-03-11T08:32:44.464Z,2.60
2023-03-11T08:35:10.920Z,2.70
2023-03-11T08:37:37.461Z,2.64
2023-03-11T08:40:03.938Z,2.69
2023-03-11T08:42:30.409Z,2.78
2023-03-11T08:44:56.845Z,2.91
2023-03-11T08:47:23.312Z,2.62
2023-03-11T08:49:49.747Z,2.61
2023-03-11T08:52:16.186Z,2.69
2023-03-11T08:54:42.610Z,2.82
2023-03-11T08:57:09.076Z,2.92
2023-03-11T08:59:35.525Z,2.77
2023-03-11T09:02:01.975Z,2.85
2023-03-11T09:04:28.459Z,2.69
2023-03-11T09:06:54.909Z,2.92
2023-03-11T09:09:21.358Z,2.91
2023-03-11T09:11:47.826Z,3.06
2023-03-11T09:14:14.285Z,3.14
2023-03-11T09:16:40.739Z,3.00
2023-03-11T09:19:07.231Z,3.16
2023-03-11T09:21:33.682Z,3.23
2023-03-11T09:24:00.146Z,3.14
2023-03-11T09:26:26.602Z,3.43
2023-03-11T09:28:53.050Z,3.27
2023-03-11T09:31:19.553Z,3.47
2023-03-11T09:33:46.031Z,3.48
2023-03-11T09:36:12.527Z,3.47
2023-03-11T09:38:38.981Z,3.80
2023-03-11T09:41:05.412Z,3.66
2023-03-11T09:43:31.851Z,3.74
2023-03-11T09:45:58.291Z,3.71
2023-03-11T09:48:24.736Z,3.86
2023-03-11T09:50:51.166Z,3.91
2023-03-11T09:53:17.613Z,3.56
2023-03-11T09:55:44.047Z,4.32
2023-03-11T09:58:10.502Z,4.25
2023-03-11T10:00:36.960Z,4.27
2023-03-11T10:03:03.458Z,4.23
2023-03-11T10:05:29.944Z,4.14
2023-03-11T10:07:56.370Z,4.25
2023-03-11T10:10:22.856Z,4.15
2023-03-11T10:12:49.302Z,4.27
2023-03-11T10:15:15.785Z,4.02
2023-03-11T10:17:42.216Z,4.09
2023-03-11T10:20:08.651Z,4.14
2023-03-11T10:22:35.095Z,4.03
2023-03-11T10:25:01.534Z,4.17
2023-03-11T10:27:27.994Z,4.32
2023-03-11T10:29:54.425Z,4.34
2023-03-11T10:32:20.930Z,4.31
2023-03-11T10:34:47.406Z,4.07
2023-03-11T10:37:13.847Z,4.01
2023-03-11T10:39:40.306Z,4.14
2023-03-11T10:42:06.786Z,4.06
2023-03-11T10:44:33.270Z,4.06
2023-03-11T10:46:59.793Z,4.42
2023-03-11T10:49:26.230Z,4.09
2023-03-11T10:51:52.678Z,4.21
2023-03-11T10:54:19.116Z,4.50
2023-03-11T10:56:45.571Z,4.38
2023-03-11T10:59:12.031Z,4.22
2023-03-11T11:01:38.490Z,4.29
2023-03-11T11:04:05.004Z,4.33
2023-03-11T11:06:31.502Z,4.29
2023-03-11T11:08:57.941Z,4.10
2023-03-11T11:11:24.378Z,4.01
2023-03-11T11:13:50.920Z,4.30
2023-03-11T11:16:17.401Z,4.20
2023-03-11T11:18:43.871Z,3.96
2023-03-11T11:21:10.314Z,4.41
2023-03-11T11:23:36.748Z,4.23
2023-03-11T11:26:03.198Z,4.18
2023-03-11T11:28:29.647Z,4.36
2023-03-11T11:30:56.125Z,4.10
2023-03-11T11:33:22.640Z,4.11
2023-03-11T11:35:49.162Z,4.22
2023-03-11T11:38:15.607Z,4.31
2023-03-11T11:40:42.062Z,4.05
2023-03-11T11:43:08.507Z,4.28
2023-03-11T11:45:34.949Z,4.50
2023-03-11T11:48:01.411Z,4.55
2023-03-11T11:50:27.865Z,4.36
2023-03-11T11:52:54.302Z,4.79
2023-03-11T11:55:20.747Z,4.70
2023-03-11T11:57:47.251Z,5.01
2023-03-11T12:00:13.754Z,5.59
2023-03-11T12:02:40.192Z,5.96
2023-03-11T12:05:06.739Z,6.04
2023-03-11T12:07:33.201Z,7.13
2023-03-11T12:10:00.792Z,7.48
2023-03-11T12:12:31.589Z,8.24
2023-03-11T12:14:58.030Z,9.16
2023-03-11T12:17:24.454Z,9.44
2023-03-11T12:19:50.910Z,10.31
2023-03-11T12:22:17.341Z,10.97
2023-03-11T12:24:43.769Z,12.11
2023-03-11T12:27:10.236Z,13.68
2023-03-11T12:29:36.704Z,14.64
2023-03-11T12:32:03.170Z,15.44
2023-03-11T12:34:29.617Z,16.39
2023-03-11T12:36:56.069Z,17.07
2023-03-11T12:39:22.513Z,18.39
2023-03-11T12:41:48.959Z,19.59
2023-03-11T12:44:15.431Z,20.29
2023-03-11T12:46:41.951Z,21.67
2023-03-11T12:49:08.432Z,22.85
2023-03-11T12:51:34.861Z,23.20
2023-03-11T12:54:01.305Z,24.71
2023-03-11T12:56:27.754Z,25.42
2023-03-11T12:58:54.223Z,24.91
2023-03-11T13:01:20.712Z,26.34
2023-03-11T13:03:47.187Z,26.92
2023-03-11T13:06:13.643Z,26.98
2023-03-11T13:08:40.106Z,27.73
2023-03-11T13:11:06.559Z,27.35
2023-03-11T13:13:33.023Z,28.22
2023-03-11T13:15:59.530Z,28.48
2023-03-11T13:18:26.001Z,28.28
2023-03-11T13:20:52.434Z,28.60
2023-03-11T13:23:18.890Z,29.01
2023-03-11T13:25:45.331Z,29.01
2023-03-11T13:28:11.766Z,28.33
2023-03-11T13:30:38.227Z,29.23
2023-03-11T13:33:04.696Z,29.14
2023-03-11T13:35:31.153Z,29.20
2023-03-11T13:37:57.615Z,28.39
2023-03-11T13:40:24.065Z,29.27
2023-03-11T13:42:50.546Z,29.00
2023-03-11T13:45:16.990Z,29.70
2023-03-11T13:47:43.475Z,28.63
2023-03-11T13:50:09.945Z,28.91
2023-03-11T13:52:36.441Z,27.71
2023-03-11T13:55:02.895Z,29.08
2023-03-11T13:57:29.355Z,27.59
2023-03-11T13:59:55.824Z,27.70
2023-03-11T14:02:22.267Z,27.37
2023-03-11T14:04:48.728Z,27.05
2023-03-11T14:07:15.269Z,27.16
2023-03-11T14:09:41.765Z,26.92
2023-03-11T14:12:08.224Z,26.79
2023-03-11T14:14:37.438Z,26.90
2023-03-11T14:17:03.911Z,26.75
2023-03-11T14:19:30.358Z,27.05
2023-03-11T14:21:56.796Z,26.62
2023-03-11T14:24:23.318Z,26.66
2023-03-11T14:26:49.850Z,26.49
2023-03-11T14:29:16.303Z,26.21
2023-03-11T14:31:42.815Z,25.34
2023-03-11T14:34:09.297Z,25.35
2023-03-11T14:36:35.777Z,25.88
2023-03-11T14:39:02.235Z,25.65
2023-03-11T14:41:28.684Z,25.54
2023-03-11T14:43:55.134Z,25.95
2023-03-11T14:46:21.658Z,24.72
2023-03-11T14:48:48.246Z,25.06
2023-03-11T14:51:14.713Z,24.66
2023-03-11T14:53:41.184Z,25.44
2023-03-11T14:56:07.651Z,25.21
2023-03-11T14:58:34.114Z,24.66
2023-03-11T15:01:00.663Z,24.47
2023-03-11T15:03:27.167Z,23.78
2023-03-11T15:05:53.672Z,23.13
2023-03-11T15:08:20.118Z,23.05
2023-03-11T15:10:46.567Z,21.80
2023-03-11T15:13:13.012Z,21.61
2023-03-11T15:15:39.470Z,21.78
2023-03-11T15:18:05.944Z,22.40
2023-03-11T15:20:32.401Z,21.99
2023-03-11T15:22:58.852Z,21.79
2023-03-11T15:25:25.299Z,21.47
2023-03-11T15:27:51.752Z,21.81
2023-03-11T15:30:18.204Z,21.68
2023-03-11T15:32:44.699Z,21.13
2023-03-11T15:35:11.198Z,20.75
2023-03-11T15:37:37.670Z,21.66
2023-03-11T15:40:04.137Z,21.07
2023-03-11T15:42:30.610Z,21.68
2023-03-11T15:44:57.055Z,20.62
2023-03-11T15:47:23.585Z,21.03
2023-03-11T15:49:50.085Z,20.92
2023-03-11T15:52:16.542Z,20.51
2023-03-11T15:54:47.343Z,20.54
2023-03-11T15:57:18.431Z,20.64
2023-03-11T15:59:44.869Z,20.56
2023-03-11T16:02:11.326Z,20.01
2023-03-11T16:04:37.939Z,20.01
2023-03-11T16:07:08.357Z,20.54
2023-03-11T16:09:35.123Z,20.07
2023-03-11T16:12:01.580Z,19.59
2023-03-11T16:14:28.049Z,19.93
2023-03-11T16:16:54.501Z,19.80
2023-03-11T16:19:20.966Z,19.92
2023-03-11T16:21:47.429Z,19.08
2023-03-11T16:24:13.878Z,19.32
2023-03-11T16:26:40.333Z,19.42
2023-03-11T16:29:18.494Z,18.59
2023-03-11T16:31:45.682Z,19.01
2023-03-11T16:34:12.155Z,19.15
2023-03-11T16:36:38.599Z,19.22
2023-03-11T16:39:05.066Z,18.77
2023-03-11T16:41:31.541Z,19.69
2023-03-11T16:43:57.994Z,19.29
2023-03-11T16:46:24.468Z,19.15
2023-03-11T16:48:50.970Z,18.95
2023-03-11T16:51:17.455Z,19.38
2023-03-11T16:53:43.915Z,19.68
2023-03-11T16:56:10.379Z,19.69
2023-03-11T16:58:36.842Z,19.96
2023-03-11T17:01:03.309Z,20.43
2023-03-11T17:03:40.947Z,20.85
2023-03-11T17:06:08.859Z,21.02
2023-03-11T17:08:35.312Z,20.91
2023-03-11T17:11:01.772Z,21.16
2023-03-11T17:13:28.245Z,21.60
2023-03-11T17:15:54.721Z,20.97
2023-03-11T17:18:21.189Z,21.39
2023-03-11T17:20:47.647Z,21.79
2023-03-11T17:23:14.087Z,21.90
2023-03-11T17:25:40.551Z,22.10
2023-03-11T17:28:06.998Z,22.35
2023-03-11T17:30:37.274Z,23.12
2023-03-11T17:33:04.038Z,22.68
2023-03-11T17:35:30.522Z,22.39
2023-03-11T17:37:57.003Z,22.23
2023-03-11T17:40:23.581Z,22.66
2023-03-11T17:42:50.100Z,22.47
2023-03-11T17:45:16.534Z,22.58
2023-03-11T17:47:42.995Z,22.29
2023-03-11T17:50:09.476Z,22.48
2023-03-11T17:52:35.936Z,22.93
2023-03-11T17:55:02.395Z,22.62
2023-03-11T17:57:28.833Z,22.74
2023-03-11T17:59:55.271Z,21.74
2023-03-11T18:02:21.747Z,23.10
2023-03-11T18:04:48.224Z,22.98
2023-03-11T18:07:14.679Z,22.45
2023-03-11T18:09:41.129Z,22.69
2023-03-11T18:12:07.598Z,22.74
2023-03-11T18:14:34.060Z,22.66
2023-03-11T18:17:00.524Z,22.45
2023-03-11T18:19:26.982Z,23.19
2023-03-11T18:21:53.426Z,23.97
2023-03-11T18:24:19.874Z,23.35
2023-03-11T18:26:46.331Z,23.85
2023-03-11T18:29:12.765Z,24.07
2023-03-11T18:31:39.258Z,24.51
2023-03-11T18:34:05.742Z,24.80
2023-03-11T18:36:32.202Z,24.73
2023-03-11T18:38:58.641Z,25.40
2023-03-11T18:41:25.078Z,25.33
2023-03-11T18:43:51.524Z,25.25
2023-03-11T18:46:18.095Z,25.78
2023-03-11T18:48:44.677Z,25.52
2023-03-11T18:51:11.136Z,25.96
2023-03-11T18:53:37.596Z,26.17
2023-03-11T18:56:04.043Z,26.47
2023-03-11T18:58:30.478Z,26.32
2023-03-11T19:00:56.986Z,27.95
2023-03-11T19:03:23.466Z,28.86
2023-03-11T19:05:50.907Z,30.14
2023-03-11T19:08:17.416Z,30.40
2023-03-11T19:10:43.885Z,32.29
2023-03-11T19:13:10.340Z,32.98
2023-03-11T19:15:36.810Z,34.07
2023-03-11T19:18:07.114Z,36.27
2023-03-11T19:20:33.923Z,37.12
2023-03-11T19:23:00.413Z,37.67
2023-03-11T19:25:27.983Z,39.51
2023-03-11T19:27:54.590Z,40.94
2023-03-11T19:30:21.036Z,42.71
2023-03-11T19:32:47.557Z,44.81
2023-03-11T19:35:14.054Z,46.84
2023-03-11T19:37:40.543Z,47.96
2023-03-11T19:40:07.868Z,48.25
2023-03-11T19:42:35.122Z,49.11
2023-03-11T19:45:01.569Z,51.22
2023-03-11T19:47:28.022Z,51.95
2023-03-11T19:49:54.464Z,52.56
2023-03-11T19:52:20.921Z,53.34
2023-03-11T19:54:47.373Z,53.90
2023-03-11T19:57:13.830Z,54.67
2023-03-11T19:59:40.289Z,55.08
2023-03-11T20:02:06.777Z,56.54
2023-03-11T20:04:33.305Z,56.00
2023-03-11T20:06:59.836Z,57.50
2023-03-11T20:09:26.290Z,57.61
2023-03-11T20:11:52.783Z,57.29
2023-03-11T20:14:19.237Z,57.78
2023-03-11T20:16:45.765Z,57.63
2023-03-11T20:19:12.259Z,57.13
2023-03-11T20:21:38.699Z,56.90
2023-03-11T20:24:05.163Z,57.88
2023-03-11T20:26:31.707Z,57.07
2023-03-11T20:28:58.236Z,57.50
2023-03-11T20:31:24.751Z,57.05
2023-03-11T20:33:51.345Z,57.14
2023-03-11T20:36:17.878Z,56.62
2023-03-11T20:38:44.413Z,56.35
2023-03-11T20:41:10.888Z,55.57
2023-03-11T20:43:37.462Z,56.15
2023-03-11T20:46:04.072Z,54.07
2023-03-11T20:48:30.634Z,54.79
2023-03-11T20:50:57.143Z,54.70
2023-03-11T20:53:23.596Z,53.15
2023-03-11T20:55:50.060Z,53.97
2023-03-11T20:58:16.539Z,53.82
2023-03-11T21:00:43.028Z,54.42
2023-03-11T21:03:09.615Z,53.70
2023-03-11T21:05:36.175Z,52.03
2023-03-11T21:08:02.661Z,51.68
2023-03-11T21:10:29.173Z,50.53
2023-03-11T21:12:55.698Z,50.93
2023-03-11T21:15:22.147Z,50.34
2023-03-11T21:17:48.628Z,49.70
2023-03-11T21:20:15.085Z,49.40
2023-03-11T21:22:41.591Z,49.15
2023-03-11T21:25:08.707Z,49.69
2023-03-11T21:27:35.312Z,48.37
2023-03-11T21:30:01.839Z,48.72
2023-03-11T21:32:28.506Z,47.63
2023-03-11T21:34:55.149Z,48.18
2023-03-11T21:37:21.622Z,46.96
2023-03-11T21:39:48.108Z,46.17
2023-03-11T21:42:14.659Z,46.71
2023-03-11T21:44:41.129Z,46.96
2023-03-11T21:47:07.619Z,45.69
2023-03-11T21:49:34.120Z,45.67
2023-03-11T21:52:02.282Z,45.05
2023-03-11T21:54:29.080Z,43.99
2023-03-11T21:56:55.697Z,43.36
2023-03-11T21:59:25.141Z,43.47
2023-03-11T22:01:52.063Z,42.41
2023-03-11T22:04:18.606Z,42.57
2023-03-11T22:06:45.255Z,42.56
2023-03-11T22:09:11.718Z,41.69
2023-03-11T22:11:38.213Z,41.34
2023-03-11T22:14:04.701Z,40.86
2023-03-11T22:16:31.434Z,40.25
2023-03-11T22:18:58.155Z,39.31
2023-03-11T22:21:24.726Z,38.95
2023-03-11T22:23:51.192Z,37.86
2023-03-11T22:26:17.679Z,37.72
2023-03-11T22:28:44.177Z,37.36
2023-03-11T22:31:10.626Z,36.81
2023-03-11T22:33:37.078Z,36.63
2023-03-11T22:36:03.591Z,36.18
2023-03-11T22:38:30.056Z,36.05
2023-03-11T22:40:56.518Z,35.47
2023-03-11T22:43:23.011Z,35.25
2023-03-11T22:45:49.528Z,34.29
2023-03-11T22:48:15.990Z,34.89
2023-03-11T22:50:42.435Z,35.09
2023-03-11T22:53:08.900Z,34.26
2023-03-11T22:55:35.342Z,33.46
2023-03-11T22:58:01.794Z,33.40
2023-03-11T23:00:28.242Z,34.02
2023-03-11T23:02:54.768Z,32.59
2023-03-11T23:05:21.273Z,32.81
2023-03-11T23:07:47.737Z,32.00
2023-03-11T23:10:14.212Z,32.61
2023-03-11T23:12:40.690Z,32.11
2023-03-11T23:15:07.160Z,31.97
2023-03-11T23:17:33.607Z,31.64
2023-03-11T23:20:00.082Z,31.73
2023-03-11T23:22:26.552Z,31.43
2023-03-11T23:24:53.016Z,30.90
2023-03-11T23:27:19.474Z,29.94
2023-03-11T23:29:45.950Z,30.25
2023-03-11T23:32:12.386Z,30.47
2023-03-11T23:34:38.853Z,30.39
2023-03-11T23:37:05.599Z,29.73
2023-03-11T23:39:32.099Z,29.67
2023-03-11T23:41:58.569Z,29.12
2023-03-11T23:44:25.052Z,28.67
2023-03-11T23:46:51.536Z,28.89
2023-03-11T23:49:17.979Z,28.02
2023-03-11T23:51:44.438Z,28.40
2023-03-11T23:54:10.928Z,28.78
2023-03-11T23:56:37.359Z,28.14
2023-03-11T23:59:03.820Z,28.12
